createdAt,value
2023-12-23T00:00:19.676Z,26.38
2023-12-23T00:05:21.516Z,26.67
2023-12-23T00:10:23.464Z,25.56
2023-12-23T00:15:25.248Z,26.96
2023-12-23T00:20:27.150Z,25.74
2023-12-23T00:25:29.101Z,25.92
2023-12-23T00:30:31.038Z,26.55
2023-12-23T00:35:33.008Z,25.37
2023-12-23T00:40:34.949Z,27.44
2023-12-23T00:45:36.894Z,26.88
2023-12-23T00:50:38.852Z,25.91
2023-12-23T00:55:40.760Z,25.39
2023-12-23T01:00:42.709Z,25.61
2023-12-23T01:05:44.679Z,27.01
2023-12-23T01:10:46.580Z,26.11
2023-12-23T01:15:49.012Z,25.15
2023-12-23T01:20:50.898Z,25.92
2023-12-23T01:25:52.994Z,26.09
2023-12-23T01:30:55.047Z,27.10
2023-12-23T01:35:57.030Z,28.48
2023-12-23T01:40:59.120Z,29.59
2023-12-23T01:46:02.955Z,30.86
2023-12-23T01:51:05.268Z,29.42
2023-12-23T01:56:07.717Z,30.61
2023-12-23T02:01:09.832Z,33.28
2023-12-23T02:06:12.085Z,31.12
2023-12-23T02:11:23.155Z,31.65
2023-12-23T02:16:25.540Z,30.65
2023-12-23T02:21:27.625Z,29.12
2023-12-23T02:26:33.080Z,31.35
2023-12-23T02:31:36.310Z,28.93
2023-12-23T02:36:40.259Z,29.02
2023-12-23T02:41:42.173Z,28.49
2023-12-23T02:46:44.120Z,28.32
2023-12-23T02:51:45.843Z,29.35
2023-12-23T02:56:47.543Z,27.43
2023-12-23T03:01:49.266Z,27.80
2023-12-23T03:06:50.943Z,26.69
2023-12-23T03:11:52.761Z,25.96
2023-12-23T03:16:54.745Z,27.51
2023-12-23T03:21:56.388Z,26.67
2023-12-23T03:26:58.064Z,26.74
2023-12-23T03:31:59.862Z,26.55
2023-12-23T03:37:01.636Z,26.74
2023-12-23T03:42:03.567Z,27.21
2023-12-23T03:47:05.466Z,27.63
2023-12-23T03:52:07.180Z,25.63
2023-12-23T03:57:08.907Z,27.01
2023-12-23T04:02:10.636Z,25.52
2023-12-23T04:07:13.343Z,28.13
2023-12-23T04:12:15.104Z,27.18
2023-12-23T04:17:17.026Z,26.31
2023-12-23T04:22:18.887Z,26.91
2023-12-23T04:27:21.104Z,26.13
2023-12-23T04:32:23.289Z,25.87
2023-12-23T04:37:26.343Z,26.50
2023-12-23T04:42:28.297Z,25.71
2023-12-23T04:47:30.243Z,26.15
2023-12-23T04:52:32.142Z,25.53
2023-12-23T04:57:35.355Z,25.49
2023-12-23T05:02:37.064Z,26.01
2023-12-23T05:07:38.795Z,26.56
2023-12-23T05:12:40.561Z,24.98
2023-12-23T05:17:42.438Z,25.83
2023-12-23T05:22:44.444Z,26.64
2023-12-23T05:27:46.871Z,26.09
2023-12-23T05:32:48.837Z,26.56
2023-12-23T05:37:50.698Z,26.27
2023-12-23T05:42:52.814Z,24.98
2023-12-23T05:47:54.750Z,25.11
2023-12-23T05:52:56.548Z,27.34
2023-12-23T05:57:58.254Z,27.08
2023-12-23T06:03:00.034Z,25.89
2023-12-23T06:08:01.809Z,25.72
2023-12-23T06:13:03.712Z,25.59
2023-12-23T06:18:06.625Z,27.07
2023-12-23T06:23:08.570Z,26.46
2023-12-23T06:28:10.495Z,25.85
2023-12-23T06:33:12.476Z,26.29
2023-12-23T06:38:17.267Z,26.70
2023-12-23T06:43:44.576Z,25.28
2023-12-23T06:48:41.489Z,26.63
2023-12-23T06:53:43.537Z,26.52
2023-12-23T06:58:45.600Z,26.49
2023-12-23T07:03:47.397Z,25.92
2023-12-23T07:08:49.358Z,24.28
2023-12-23T07:13:52.502Z,25.54
2023-12-23T07:18:54.672Z,25.66
2023-12-23T07:23:56.838Z,26.97
2023-12-23T07:28:58.926Z,25.44
2023-12-23T07:34:01.453Z,26.21
2023-12-23T07:39:04.659Z,25.49
2023-12-23T07:44:06.487Z,25.98
2023-12-23T07:49:08.785Z,26.69
2023-12-23T07:54:10.547Z,26.17
2023-12-23T07:59:12.373Z,25.39
2023-12-23T08:04:15.029Z,26.70
2023-12-23T08:09:16.750Z,26.22
2023-12-23T08:14:18.484Z,28.26
2023-12-23T08:19:22.182Z,27.54
2023-12-23T08:24:24.252Z,26.46
2023-12-23T08:29:26.378Z,27.04
2023-12-23T08:34:29.480Z,25.74
2023-12-23T08:39:31.563Z,26.94
2023-12-23T08:44:33.203Z,26.05
2023-12-23T08:49:34.895Z,27.61
2023-12-23T08:54:38.246Z,26.10
2023-12-23T08:59:41.253Z,26.06
2023-12-23T09:04:43.024Z,26.36
2023-12-23T09:09:44.824Z,26.07
2023-12-23T09:14:47.734Z,26.16
2023-12-23T09:19:49.427Z,26.84
2023-12-23T09:24:51.144Z,26.12
2023-12-23T09:29:54.631Z,26.23
2023-12-23T09:34:56.587Z,26.29
2023-12-23T09:40:00.519Z,27.23
2023-12-23T09:45:03.067Z,26.82
2023-12-23T09:50:05.317Z,27.68
2023-12-23T09:55:10.971Z,28.00
2023-12-23T10:00:13.606Z,26.90
2023-12-23T10:05:16.501Z,27.14
2023-12-23T10:10:18.361Z,27.33
2023-12-23T10:15:20.655Z,27.08
2023-12-23T10:20:22.654Z,26.89
2023-12-23T10:25:24.433Z,26.49
2023-12-23T10:30:27.628Z,26.92
2023-12-23T10:35:33.039Z,27.17
2023-12-23T10:40:34.792Z,27.29
2023-12-23T10:45:38.514Z,27.90
2023-12-23T10:50:41.653Z,27.32
2023-12-23T10:55:45.051Z,27.37
2023-12-23T11:00:48.236Z,27.36
2023-12-23T11:05:51.652Z,27.80
2023-12-23T11:10:53.727Z,26.78
2023-12-23T11:15:57.023Z,27.40
2023-12-23T11:20:59.691Z,27.94
2023-12-23T11:26:05.361Z,26.43
2023-12-23T11:31:07.380Z,26.48
2023-12-23T11:36:09.421Z,28.07
2023-12-23T11:41:13.850Z,27.30
2023-12-23T11:46:19.825Z,27.19
2023-12-23T11:51:21.928Z,28.86
2023-12-23T11:56:23.994Z,27.32
2023-12-23T12:01:25.709Z,28.15
2023-12-23T12:06:27.458Z,27.79
2023-12-23T12:11:29.898Z,27.49
2023-12-23T12:16:31.722Z,27.61
2023-12-23T12:21:33.594Z,27.22
2023-12-23T12:26:35.705Z,26.74
2023-12-23T12:31:38.544Z,26.56
2023-12-23T12:36:40.499Z,27.34
2023-12-23T12:41:42.785Z,27.63
2023-12-23T12:46:45.771Z,27.07
2023-12-23T12:51:47.756Z,28.34
2023-12-23T12:56:49.887Z,27.36
2023-12-23T13:01:51.997Z,26.53
2023-12-23T13:06:54.061Z,26.42
2023-12-23T13:11:56.035Z,26.87
2023-12-23T13:16:58.061Z,27.42
2023-12-23T13:22:00.361Z,26.59
2023-12-23T13:27:02.210Z,27.76
2023-12-23T13:32:04.763Z,28.13
2023-12-23T13:37:06.879Z,26.89
2023-12-23T13:42:10.496Z,27.64
2023-12-23T13:47:13.172Z,28.62
2023-12-23T13:52:20.101Z,29.10
2023-12-23T13:57:22.947Z,29.79
2023-12-23T14:02:25.830Z,28.63
2023-12-23T14:07:27.971Z,28.58
2023-12-23T14:12:29.675Z,27.62
2023-12-23T14:17:33.704Z,27.62
2023-12-23T14:22:35.455Z,26.94
2023-12-23T14:27:37.243Z,26.89
2023-12-23T14:32:39.148Z,27.97
2023-12-23T14:37:48.365Z,28.42
2023-12-23T14:42:52.427Z,27.08
2023-12-23T14:47:54.453Z,27.80
2023-12-23T14:52:56.360Z,29.53
2023-12-23T14:57:58.569Z,28.02
2023-12-23T15:03:01.958Z,29.07
2023-12-23T15:08:04.280Z,29.37
2023-12-23T15:13:07.890Z,28.81
2023-12-23T15:18:09.627Z,28.73
2023-12-23T15:23:11.444Z,29.31
2023-12-23T15:28:13.158Z,28.84
2023-12-23T15:33:15.715Z,29.04
2023-12-23T15:38:17.548Z,29.15
2023-12-23T15:43:19.209Z,28.29
2023-12-23T15:48:21.094Z,29.09
2023-12-23T15:53:22.896Z,28.78
2023-12-23T15:58:24.741Z,28.21
2023-12-23T16:03:26.798Z,28.55
2023-12-23T16:08:28.628Z,28.54
2023-12-23T16:13:30.331Z,28.63
2023-12-23T16:18:32.428Z,28.76
2023-12-23T16:23:34.373Z,29.34
2023-12-23T16:28:36.608Z,28.13
2023-12-23T16:33:38.416Z,28.95
2023-12-23T16:38:40.261Z,28.42
2023-12-23T16:43:42.140Z,28.33
2023-12-23T16:48:44.861Z,28.30
2023-12-23T16:53:46.684Z,29.06
2023-12-23T16:58:48.473Z,26.95
2023-12-23T17:03:50.778Z,27.59
2023-12-23T17:08:52.563Z,29.93
2023-12-23T17:13:54.317Z,27.91
2023-12-23T17:18:56.287Z,26.19
2023-12-23T17:23:58.045Z,26.89
2023-12-23T17:28:59.817Z,27.21
2023-12-23T17:34:01.485Z,26.56
2023-12-23T17:39:04.123Z,28.58
2023-12-23T17:44:06.196Z,27.39
2023-12-23T17:49:08.579Z,27.27
2023-12-23T17:54:10.670Z,28.00
2023-12-23T17:59:13.161Z,28.62
2023-12-23T18:04:15.063Z,27.65
2023-12-23T18:09:16.992Z,27.73
2023-12-23T18:14:18.928Z,28.32
2023-12-23T18:19:21.274Z,27.83
2023-12-23T18:24:23.166Z,27.06
2023-12-23T18:29:25.169Z,27.83
2023-12-23T18:34:28.107Z,26.83
2023-12-23T18:39:30.247Z,26.63
2023-12-23T18:44:32.295Z,26.93
2023-12-23T18:49:34.238Z,25.72
2023-12-23T18:54:37.455Z,26.71
2023-12-23T18:59:39.429Z,27.57
2023-12-23T19:04:41.697Z,25.77
2023-12-23T19:09:43.470Z,25.69
2023-12-23T19:14:45.147Z,26.82
2023-12-23T19:19:46.893Z,26.73
2023-12-23T19:24:48.547Z,26.68
2023-12-23T19:29:50.249Z,27.28
2023-12-23T19:34:52.001Z,25.66
2023-12-23T19:39:59.837Z,25.63
2023-12-23T19:45:09.550Z,25.96
2023-12-23T19:50:11.641Z,24.71
2023-12-23T19:55:13.834Z,25.39
2023-12-23T20:00:15.899Z,25.92
2023-12-23T20:05:17.897Z,25.52
2023-12-23T20:10:20.406Z,27.16
2023-12-23T20:15:22.191Z,26.80
2023-12-23T20:20:23.918Z,25.83
2023-12-23T20:25:25.774Z,25.84
2023-12-23T20:30:27.599Z,26.54
2023-12-23T20:35:29.430Z,25.88
2023-12-23T20:40:31.223Z,26.58
2023-12-23T20:45:32.917Z,26.18
2023-12-23T20:50:34.991Z,26.21
2023-12-23T20:55:36.724Z,25.93
2023-12-23T21:00:38.402Z,26.25
2023-12-23T21:05:40.096Z,26.54
2023-12-23T21:10:41.847Z,26.54
2023-12-23T21:15:43.610Z,27.14
2023-12-23T21:20:45.310Z,25.54
2023-12-23T21:25:46.954Z,26.74
2023-12-23T21:30:48.721Z,25.72
2023-12-23T21:35:50.474Z,26.24
2023-12-23T21:40:52.173Z,26.97
2023-12-23T21:45:54.828Z,25.11
2023-12-23T21:50:56.503Z,25.43
2023-12-23T21:55:58.239Z,26.66
2023-12-23T22:01:00.743Z,25.94
2023-12-23T22:06:02.553Z,27.04
2023-12-23T22:11:04.569Z,24.60
2023-12-23T22:16:07.675Z,25.71
2023-12-23T22:21:13.496Z,26.80
2023-12-23T22:26:15.275Z,26.62
2023-12-23T22:31:17.003Z,26.01
2023-12-23T22:36:19.447Z,26.11
2023-12-23T22:41:21.143Z,26.17
2023-12-23T22:46:22.836Z,26.89
2023-12-23T22:51:24.478Z,24.37
2023-12-23T22:56:26.228Z,25.96
2023-12-23T23:01:28.157Z,25.84
2023-12-23T23:06:31.838Z,25.20
2023-12-23T23:11:33.845Z,25.56
2023-12-23T23:16:35.858Z,26.00
2023-12-23T23:21:37.940Z,26.05
2023-12-23T23:26:39.924Z,26.45
2023-12-23T23:31:41.854Z,25.44
2023-12-23T23:36:43.800Z,26.48
2023-12-23T23:41:45.890Z,26.34
2023-12-23T23:46:47.870Z,26.80
2023-12-23T23:51:49.787Z,26.89
2023-12-23T23:56:51.670Z,26.17
